Terminal Aerodrome Forecast
Issued by NWS

Home | Current Version | Previous Version | Text Only | Print | Product List | Glossary On
Versions: 1 2 3 4 5 6 7 8 9 10 11 12 13 14 15 16 17 18 19 20 21 22 23
000
FTUS43 KDMX 231734
TAFFOD
TAF
KFOD 231734Z 2318/2418 32004KT P6SM OVC012
     FM240000 VRB03KT P6SM OVC010
     FM240600 12005KT P6SM OVC010
     FM241400 11009KT P6SM -SN SCT010 OVC030
     FM241600 11013G20KT 3SM -SN BKN012 OVC025=

USA.gov is the U.S. government's official web portal to all federal, state and local government web resources and services.